createdAt,value
2019-05-05T00:01:40.971Z,2.40
2019-05-05T00:04:19.654Z,2.30
2019-05-05T00:06:50.401Z,2.30
2019-05-05T00:09:21.278Z,2.30
2019-05-05T00:12:05.306Z,2.20
2019-05-05T00:14:44.278Z,2.20
2019-05-05T00:17:18.371Z,2.10
2019-05-05T00:19:49.272Z,2.10
2019-05-05T00:22:20.163Z,2.10
2019-05-05T00:24:50.960Z,2.00
2019-05-05T00:27:22.892Z,2.00
2019-05-05T00:29:54.750Z,1.90
2019-05-05T00:32:28.406Z,1.90
2019-05-05T00:34:59.290Z,1.90
2019-05-05T00:37:30.153Z,1.90
2019-05-05T00:40:02.142Z,1.80
2019-05-05T00:42:35.089Z,1.80
2019-05-05T00:45:06.858Z,1.80
2019-05-05T00:47:46.645Z,1.80
2019-05-05T00:50:25.243Z,1.70
2019-05-05T00:52:56.205Z,1.70
2019-05-05T00:55:27.034Z,1.70
2019-05-05T00:57:58.975Z,1.60
2019-05-05T01:00:50.782Z,1.60
2019-05-05T01:03:24.294Z,1.50
2019-05-05T01:06:15.126Z,1.50
2019-05-05T01:08:46.164Z,1.50
2019-05-05T01:11:18.044Z,1.50
2019-05-05T01:13:49.871Z,1.50
2019-05-05T01:16:20.854Z,1.50
2019-05-05T01:18:51.651Z,1.50
2019-05-05T01:21:24.474Z,1.50
2019-05-05T01:23:55.415Z,1.50
2019-05-05T01:26:26.247Z,1.50
2019-05-05T01:28:57.159Z,1.50
2019-05-05T01:31:27.936Z,1.60
2019-05-05T01:34:10.067Z,1.50
2019-05-05T01:36:42.314Z,1.50
2019-05-05T01:39:26.142Z,1.50
2019-05-05T01:42:00.134Z,1.50
2019-05-05T01:44:31.004Z,1.50
2019-05-05T01:47:01.846Z,1.60
2019-05-05T01:49:34.503Z,1.60
2019-05-05T01:52:05.238Z,1.60
2019-05-05T01:54:36.038Z,1.60
2019-05-05T01:57:07.625Z,1.70
2019-05-05T01:59:39.024Z,1.70
2019-05-05T02:02:10.901Z,1.70
2019-05-05T02:04:41.836Z,1.80
2019-05-05T02:07:14.468Z,1.80
2019-05-05T02:09:45.284Z,1.80
2019-05-05T02:12:16.103Z,1.90
2019-05-05T02:14:47.632Z,2.00
2019-05-05T02:17:20.483Z,2.00
2019-05-05T02:19:51.325Z,2.10
2019-05-05T02:22:22.100Z,2.10
2019-05-05T02:24:55.155Z,2.10
2019-05-05T02:27:27.176Z,2.10
2019-05-05T02:30:15.979Z,2.10
2019-05-05T02:32:49.497Z,2.10
2019-05-05T02:35:20.383Z,2.10
2019-05-05T02:37:51.311Z,2.10
2019-05-05T02:40:24.790Z,2.10
2019-05-05T02:42:56.990Z,2.10
2019-05-05T02:45:37.428Z,2.10
2019-05-05T02:48:15.285Z,2.10
2019-05-05T02:51:00.272Z,2.20
2019-05-05T02:53:39.028Z,2.20
2019-05-05T02:56:23.787Z,2.20
2019-05-05T02:58:58.489Z,2.20
2019-05-05T03:01:37.509Z,2.20
2019-05-05T03:04:09.389Z,2.20
2019-05-05T03:06:43.811Z,2.20
2019-05-05T03:09:16.169Z,2.20
2019-05-05T03:11:49.591Z,2.20
2019-05-05T03:14:23.561Z,2.20
2019-05-05T03:16:54.633Z,2.20
2019-05-05T03:19:26.385Z,2.20
2019-05-05T03:21:57.485Z,2.30
2019-05-05T03:24:30.043Z,2.30
2019-05-05T03:27:01.342Z,2.30
2019-05-05T03:29:33.608Z,2.30
2019-05-05T03:32:05.888Z,2.30
2019-05-05T03:34:37.681Z,2.30
2019-05-05T03:37:09.162Z,2.30
2019-05-05T03:39:44.470Z,2.20
2019-05-05T03:42:34.247Z,2.20
2019-05-05T03:45:28.012Z,2.20
2019-05-05T03:47:59.087Z,2.10
2019-05-05T03:50:30.086Z,2.00
2019-05-05T03:53:01.126Z,2.00
2019-05-05T03:55:31.896Z,1.80
2019-05-05T03:58:04.202Z,1.80
2019-05-05T04:01:19.201Z,1.80
2019-05-05T04:03:49.995Z,1.70
2019-05-05T04:06:37.212Z,1.80
2019-05-05T04:09:09.299Z,1.80
2019-05-05T04:11:41.819Z,1.80
2019-05-05T04:14:18.233Z,1.80
2019-05-05T04:17:06.105Z,1.80
2019-05-05T04:19:38.761Z,1.80
2019-05-05T04:22:09.599Z,1.80
2019-05-05T04:24:43.578Z,1.80
2019-05-05T04:27:18.162Z,1.90
2019-05-05T04:29:48.938Z,1.90
2019-05-05T04:32:19.680Z,1.90
2019-05-05T04:34:50.435Z,1.90
2019-05-05T04:37:21.194Z,1.90
2019-05-05T04:39:53.699Z,1.90
2019-05-05T04:45:04.124Z,1.90
2019-05-05T04:47:36.635Z,1.90
2019-05-05T04:50:18.289Z,1.90
2019-05-05T04:52:50.532Z,2.00
2019-05-05T04:55:21.303Z,2.00
2019-05-05T04:57:53.880Z,2.00
2019-05-05T05:00:24.593Z,2.10
2019-05-05T05:03:04.550Z,2.10
2019-05-05T05:05:56.815Z,2.10
2019-05-05T05:08:27.758Z,2.10
2019-05-05T05:10:58.615Z,2.10
2019-05-05T05:13:29.508Z,2.10
2019-05-05T05:16:00.283Z,2.20
2019-05-05T05:18:31.127Z,2.20
2019-05-05T05:21:03.847Z,2.20
2019-05-05T05:23:35.517Z,2.20
2019-05-05T05:26:06.263Z,2.30
2019-05-05T05:28:37.127Z,2.30
2019-05-05T05:31:07.956Z,2.30
2019-05-05T05:33:39.902Z,2.40
2019-05-05T05:36:10.705Z,2.40
2019-05-05T05:38:43.727Z,2.50
2019-05-05T05:41:16.803Z,2.50
2019-05-05T05:44:06.557Z,2.60
2019-05-05T05:46:50.965Z,2.70
2019-05-05T05:49:25.983Z,2.80
2019-05-05T05:51:56.788Z,2.90
2019-05-05T05:54:30.719Z,2.90
2019-05-05T05:57:01.492Z,3.00
2019-05-05T05:59:33.961Z,3.10
2019-05-05T06:02:11.556Z,3.10
2019-05-05T06:04:37.348Z,3.20
2019-05-05T06:07:08.183Z,3.30
2019-05-05T06:09:39.063Z,3.30
2019-05-05T06:12:09.850Z,3.30
2019-05-05T06:14:40.610Z,3.40
2019-05-05T06:17:13.381Z,3.50
2019-05-05T06:19:44.586Z,3.60
2019-05-05T06:22:28.166Z,3.70
2019-05-05T06:24:49.282Z,3.80
2019-05-05T06:27:20.094Z,3.80
2019-05-05T06:29:50.984Z,3.90
2019-05-05T06:32:23.707Z,4.00
2019-05-05T06:34:54.606Z,4.10
2019-05-05T06:37:25.451Z,4.30
2019-05-05T06:40:00.338Z,4.40
2019-05-05T06:42:48.331Z,4.50
2019-05-05T06:45:31.269Z,4.60
2019-05-05T06:48:04.315Z,4.70
2019-05-05T06:50:35.345Z,4.80
2019-05-05T06:53:06.167Z,4.90
2019-05-05T06:55:37.021Z,5.10
2019-05-05T06:58:07.765Z,5.10
2019-05-05T07:00:40.381Z,5.20
2019-05-05T07:03:11.235Z,5.30
2019-05-05T07:05:43.778Z,5.40
2019-05-05T07:08:14.959Z,5.50
2019-05-05T07:10:45.865Z,5.60
2019-05-05T07:13:16.675Z,5.70
2019-05-05T07:15:50.621Z,5.80
2019-05-05T07:18:21.564Z,5.90
2019-05-05T07:20:56.147Z,6.00
2019-05-05T07:23:53.705Z,6.10
2019-05-05T07:26:24.099Z,6.10
2019-05-05T07:28:54.863Z,6.20
2019-05-05T07:31:25.785Z,6.30
2019-05-05T07:33:56.585Z,6.40
2019-05-05T07:36:40.653Z,6.40
2019-05-05T07:39:14.220Z,6.60
2019-05-05T07:41:44.885Z,6.60
2019-05-05T07:44:25.903Z,6.80
2019-05-05T07:46:48.279Z,7.00
2019-05-05T07:49:19.189Z,7.10
2019-05-05T07:51:50.420Z,7.20
2019-05-05T07:54:23.517Z,7.30
2019-05-05T07:56:54.047Z,7.40
2019-05-05T07:59:25.048Z,7.50
2019-05-05T08:01:58.267Z,7.60
2019-05-05T08:04:29.164Z,7.70
2019-05-05T08:07:00.155Z,7.80
2019-05-05T08:09:31.103Z,7.90
2019-05-05T08:12:04.204Z,8.00
2019-05-05T08:14:34.524Z,8.00
2019-05-05T08:17:38.962Z,8.10
2019-05-05T08:20:14.920Z,8.10
2019-05-05T08:22:45.955Z,8.20
2019-05-05T08:25:36.162Z,8.20
2019-05-05T08:28:14.748Z,8.20
2019-05-05T08:30:50.946Z,8.30
2019-05-05T08:33:24.071Z,8.30
2019-05-05T08:35:54.411Z,8.30
2019-05-05T08:38:25.310Z,8.30
2019-05-05T08:40:56.317Z,8.30
2019-05-05T08:43:28.858Z,8.40
2019-05-05T08:46:01.034Z,8.40
2019-05-05T08:48:34.019Z,8.50
2019-05-05T08:51:05.747Z,8.60
2019-05-05T08:53:44.868Z,8.60
2019-05-05T08:56:09.356Z,8.60
2019-05-05T08:58:40.310Z,8.70
2019-05-05T09:01:11.434Z,8.90
2019-05-05T09:03:44.234Z,8.90
2019-05-05T09:06:14.908Z,9.00
2019-05-05T09:08:45.897Z,9.30
2019-05-05T09:11:19.218Z,9.50
2019-05-05T09:13:53.529Z,9.60
2019-05-05T09:16:24.501Z,9.70
2019-05-05T09:19:17.170Z,9.70
2019-05-05T09:21:48.040Z,9.70
2019-05-05T09:24:29.021Z,9.70
2019-05-05T09:27:21.673Z,9.60
2019-05-05T09:29:54.300Z,9.40
2019-05-05T09:32:25.394Z,9.10
2019-05-05T09:34:56.188Z,8.90
2019-05-05T09:37:27.702Z,8.70
2019-05-05T09:39:58.790Z,8.60
2019-05-05T09:42:29.819Z,8.60
2019-05-05T09:45:00.933Z,8.50
2019-05-05T09:47:31.938Z,8.40
2019-05-05T09:50:03.915Z,8.40
2019-05-05T09:52:36.594Z,8.40
2019-05-05T09:55:07.393Z,8.40
2019-05-05T09:57:39.579Z,8.40
2019-05-05T10:00:14.022Z,8.50
2019-05-05T10:02:45.189Z,8.60
2019-05-05T10:05:16.467Z,8.80
2019-05-05T10:07:48.607Z,8.90
2019-05-05T10:10:20.713Z,9.10
2019-05-05T10:12:52.985Z,9.30
2019-05-05T10:15:24.176Z,9.70
2019-05-05T10:17:55.048Z,9.90
2019-05-05T10:20:25.874Z,9.90
2019-05-05T10:22:56.721Z,9.80
2019-05-05T10:25:44.749Z,9.60
2019-05-05T10:28:15.800Z,9.50
2019-05-05T10:30:46.723Z,9.40
2019-05-05T10:33:17.575Z,9.30
2019-05-05T10:35:48.539Z,9.40
2019-05-05T10:38:19.460Z,9.80
2019-05-05T10:40:50.493Z,10.30
2019-05-05T10:43:23.691Z,10.60
2019-05-05T10:45:54.685Z,10.50
2019-05-05T10:48:25.902Z,10.50
2019-05-05T10:50:56.893Z,10.70
2019-05-05T10:53:27.875Z,10.70
2019-05-05T10:55:58.798Z,11.10
2019-05-05T10:58:29.670Z,11.50
2019-05-05T11:01:04.120Z,11.90
2019-05-05T11:03:35.039Z,12.10
2019-05-05T11:06:06.036Z,12.20
2019-05-05T11:08:36.959Z,11.90
2019-05-05T11:11:07.922Z,11.70
2019-05-05T11:13:39.072Z,11.40
2019-05-05T11:16:10.008Z,11.30
2019-05-05T11:18:41.106Z,11.00
2019-05-05T11:21:12.026Z,11.00
2019-05-05T11:23:44.810Z,10.90
2019-05-05T11:26:15.849Z,10.90
2019-05-05T11:28:46.716Z,11.00
2019-05-05T11:31:17.683Z,11.10
2019-05-05T11:33:57.289Z,11.20
2019-05-05T11:36:50.177Z,11.30
2019-05-05T11:39:23.426Z,11.40
2019-05-05T11:41:55.528Z,11.30
2019-05-05T11:44:26.457Z,11.20
2019-05-05T11:46:57.375Z,11.20
2019-05-05T11:49:28.280Z,11.20
2019-05-05T11:51:59.400Z,11.20
2019-05-05T11:54:30.508Z,11.30
2019-05-05T11:57:01.511Z,11.40
2019-05-05T11:59:32.443Z,11.50
2019-05-05T12:02:03.862Z,11.40
2019-05-05T12:04:35.844Z,11.10
2019-05-05T12:07:06.825Z,10.90
2019-05-05T12:09:49.168Z,11.00
2019-05-05T12:12:20.161Z,11.20
2019-05-05T12:14:53.754Z,11.50
2019-05-05T12:17:35.196Z,11.90
2019-05-05T12:20:07.685Z,12.20
2019-05-05T12:22:38.755Z,12.40
2019-05-05T12:25:28.648Z,12.40
2019-05-05T12:28:10.662Z,12.70
2019-05-05T12:30:41.505Z,12.90
2019-05-05T12:33:13.781Z,12.90
2019-05-05T12:35:45.368Z,13.10
2019-05-05T12:38:16.412Z,13.20
2019-05-05T12:40:47.244Z,13.30
2019-05-05T12:43:18.163Z,13.40
2019-05-05T12:45:53.975Z,13.30
2019-05-05T12:48:30.345Z,13.30
2019-05-05T12:51:04.073Z,13.20
2019-05-05T12:53:34.622Z,13.40
2019-05-05T12:56:05.656Z,13.80
2019-05-05T12:58:36.553Z,14.30
2019-05-05T13:01:19.298Z,14.80
2019-05-05T13:03:50.233Z,14.70
2019-05-05T13:06:21.295Z,14.60
2019-05-05T13:08:53.571Z,15.00
2019-05-05T13:11:24.552Z,15.10
2019-05-05T13:13:55.599Z,14.80
2019-05-05T13:16:26.451Z,14.60
2019-05-05T13:18:58.635Z,14.60
2019-05-05T13:22:03.873Z,14.80
2019-05-05T13:24:56.698Z,15.40
2019-05-05T13:27:34.073Z,16.10
2019-05-05T13:30:04.441Z,16.50
2019-05-05T13:32:35.426Z,16.80
2019-05-05T13:35:07.670Z,16.90
2019-05-05T13:37:37.506Z,16.70
2019-05-05T13:40:08.771Z,16.80
2019-05-05T13:42:39.771Z,16.90
2019-05-05T13:45:35.248Z,16.80
2019-05-05T13:48:06.268Z,16.40
2019-05-05T13:50:49.009Z,16.00
2019-05-05T13:53:19.906Z,16.00
2019-05-05T13:55:55.561Z,16.10
2019-05-05T13:58:25.217Z,16.60
2019-05-05T14:00:56.203Z,17.10
2019-05-05T14:03:27.221Z,17.30
2019-05-05T14:05:58.220Z,17.20
2019-05-05T14:08:29.107Z,16.70
2019-05-05T14:10:59.958Z,16.10
2019-05-05T14:13:30.112Z,16.10
2019-05-05T14:16:00.936Z,15.80
2019-05-05T14:18:32.963Z,15.50
2019-05-05T14:21:05.889Z,15.50
2019-05-05T14:23:57.384Z,15.30
2019-05-05T14:26:29.620Z,15.20
2019-05-05T14:29:04.144Z,15.50
2019-05-05T14:31:37.542Z,15.90
2019-05-05T14:34:16.348Z,16.10
2019-05-05T14:37:10.988Z,16.20
2019-05-05T14:39:39.379Z,16.40
2019-05-05T14:42:09.273Z,16.60
2019-05-05T14:44:39.968Z,16.40
2019-05-05T14:47:10.929Z,15.80
2019-05-05T14:49:41.729Z,14.80
2019-05-05T14:52:13.702Z,14.30
2019-05-05T14:54:44.639Z,14.20
2019-05-05T14:57:16.532Z,13.80
2019-05-05T14:59:47.428Z,13.60
2019-05-05T15:02:18.313Z,13.70
2019-05-05T15:04:49.221Z,14.00
2019-05-05T15:07:47.496Z,13.90
2019-05-05T15:10:35.974Z,13.80
2019-05-05T15:13:09.204Z,13.70
2019-05-05T15:15:41.910Z,13.70
2019-05-05T15:18:14.616Z,13.60
2019-05-05T15:20:45.581Z,13.40
2019-05-05T15:23:16.420Z,13.50
2019-05-05T15:25:47.412Z,13.30
2019-05-05T15:28:18.448Z,13.20
2019-05-05T15:30:50.745Z,13.20
2019-05-05T15:33:21.768Z,13.10
2019-05-05T15:35:53.895Z,13.00
2019-05-05T15:38:26.203Z,12.90
2019-05-05T15:40:57.496Z,12.80
2019-05-05T15:43:29.019Z,12.70
2019-05-05T15:46:00.143Z,12.80
2019-05-05T15:48:31.173Z,12.90
2019-05-05T15:51:04.813Z,12.70
2019-05-05T15:53:35.883Z,12.70
2019-05-05T15:56:06.864Z,12.70
2019-05-05T15:58:38.792Z,12.80
2019-05-05T16:01:11.651Z,12.90
2019-05-05T16:03:43.582Z,12.90
2019-05-05T16:06:14.745Z,13.00
2019-05-05T16:08:45.789Z,12.90
2019-05-05T16:11:16.784Z,12.90
2019-05-05T16:13:47.860Z,12.90
2019-05-05T16:16:25.150Z,12.90
2019-05-05T16:19:14.045Z,12.90
2019-05-05T16:22:29.463Z,12.90
2019-05-05T16:25:14.243Z,12.80
2019-05-05T16:27:45.405Z,12.70
2019-05-05T16:30:17.310Z,12.60
2019-05-05T16:32:49.126Z,12.50
2019-05-05T16:35:20.121Z,12.30
2019-05-05T16:37:51.002Z,12.20
2019-05-05T16:40:25.279Z,12.10
2019-05-05T16:42:54.795Z,12.00
2019-05-05T16:45:25.855Z,11.90
2019-05-05T16:47:56.884Z,11.90
2019-05-05T16:50:27.915Z,11.80
2019-05-05T16:53:04.163Z,11.70
2019-05-05T16:55:48.205Z,11.40
2019-05-05T16:58:19.227Z,11.30
2019-05-05T17:00:50.404Z,11.20
2019-05-05T17:03:21.556Z,11.20
2019-05-05T17:05:54.139Z,11.10
2019-05-05T17:08:25.341Z,11.10
2019-05-05T17:10:56.408Z,11.10
2019-05-05T17:13:34.273Z,11.00
2019-05-05T17:16:39.527Z,10.90
2019-05-05T17:19:23.891Z,10.80
2019-05-05T17:22:12.557Z,10.60
2019-05-05T17:24:44.074Z,10.50
2019-05-05T17:27:15.015Z,10.50
2019-05-05T17:29:46.012Z,10.60
2019-05-05T17:32:16.887Z,10.60
2019-05-05T17:34:47.873Z,10.60
2019-05-05T17:37:18.805Z,10.70
2019-05-05T17:39:57.896Z,10.70
2019-05-05T17:42:58.085Z,10.70
2019-05-05T17:45:49.394Z,10.70
2019-05-05T17:48:44.211Z,10.70
2019-05-05T17:51:40.289Z,10.70
2019-05-05T17:54:19.591Z,10.80
2019-05-05T17:56:52.464Z,10.80
2019-05-05T17:59:23.653Z,10.80
2019-05-05T18:01:54.815Z,10.80
2019-05-05T18:04:26.586Z,10.80
2019-05-05T18:07:26.343Z,10.70
2019-05-05T18:10:14.593Z,10.60
2019-05-05T18:13:03.711Z,10.50
2019-05-05T18:15:50.629Z,10.50
2019-05-05T18:18:23.346Z,10.50
2019-05-05T18:20:54.349Z,10.40
2019-05-05T18:23:27.137Z,10.30
2019-05-05T18:25:58.232Z,10.20
2019-05-05T18:28:29.495Z,10.20
2019-05-05T18:31:01.439Z,10.10
2019-05-05T18:33:33.951Z,10.00
2019-05-05T18:36:06.295Z,9.90
2019-05-05T18:38:38.308Z,9.80
2019-05-05T18:41:15.837Z,9.70
2019-05-05T18:43:55.577Z,9.60
2019-05-05T18:46:26.482Z,9.50
2019-05-05T18:48:57.490Z,9.40
2019-05-05T18:51:28.419Z,9.40
2019-05-05T18:53:59.579Z,9.40
2019-05-05T18:56:30.483Z,9.40
2019-05-05T18:59:04.513Z,9.30
2019-05-05T19:01:41.491Z,9.20
2019-05-05T19:04:34.759Z,9.20
2019-05-05T19:07:10.474Z,9.10
2019-05-05T19:09:53.722Z,9.10
2019-05-05T19:12:14.301Z,9.10
2019-05-05T19:14:45.290Z,9.10
2019-05-05T19:17:16.372Z,9.10
2019-05-05T19:19:51.533Z,9.10
2019-05-05T19:22:24.251Z,9.00
2019-05-05T19:24:55.105Z,8.90
2019-05-05T19:27:27.400Z,8.90
2019-05-05T19:29:59.733Z,9.00
2019-05-05T19:32:30.642Z,8.90
2019-05-05T19:35:03.818Z,8.90
2019-05-05T19:37:34.634Z,8.90
2019-05-05T19:40:06.184Z,8.90
2019-05-05T19:42:37.161Z,8.80
2019-05-05T19:45:08.546Z,8.90
2019-05-05T19:47:39.750Z,8.90
2019-05-05T19:50:17.598Z,8.80
2019-05-05T19:52:48.855Z,8.80
2019-05-05T19:55:19.872Z,8.80
2019-05-05T19:57:50.856Z,8.80
2019-05-05T20:00:23.822Z,8.80
2019-05-05T20:03:03.838Z,8.80
2019-05-05T20:05:27.781Z,8.80
2019-05-05T20:10:38.619Z,8.70
2019-05-05T20:13:09.531Z,8.70
2019-05-05T20:15:59.657Z,8.60
2019-05-05T20:18:30.927Z,8.70
2019-05-05T20:21:06.825Z,8.70
2019-05-05T20:23:35.508Z,8.70
2019-05-05T20:26:06.535Z,8.70
2019-05-05T20:28:37.906Z,8.70
2019-05-05T20:31:08.868Z,8.60
2019-05-05T20:33:47.094Z,8.60
2019-05-05T20:36:23.723Z,8.60
2019-05-05T20:38:55.463Z,8.50
2019-05-05T20:41:26.398Z,8.60
2019-05-05T20:43:57.422Z,8.50
2019-05-05T20:46:30.661Z,8.40
2019-05-05T20:49:03.760Z,8.40
2019-05-05T20:51:34.419Z,8.40
2019-05-05T20:54:06.824Z,8.40
2019-05-05T20:56:37.816Z,8.30
2019-05-05T20:59:08.718Z,8.30
2019-05-05T21:01:43.898Z,8.30
2019-05-05T21:04:15.621Z,8.20
2019-05-05T21:06:46.478Z,8.20
2019-05-05T21:09:17.313Z,8.10
2019-05-05T21:11:49.528Z,8.10
2019-05-05T21:14:31.986Z,8.10
2019-05-05T21:16:54.730Z,8.10
2019-05-05T21:19:26.050Z,8.00
2019-05-05T21:21:59.502Z,7.90
2019-05-05T21:24:30.788Z,7.80
2019-05-05T21:27:05.383Z,7.80
2019-05-05T21:29:41.337Z,7.70
2019-05-05T21:32:08.762Z,7.70
2019-05-05T21:34:41.408Z,7.60
2019-05-05T21:37:14.137Z,7.50
2019-05-05T21:39:45.546Z,7.40
2019-05-05T21:42:16.547Z,7.30
2019-05-05T21:44:48.681Z,7.20
2019-05-05T21:47:19.477Z,7.10
2019-05-05T21:49:50.356Z,7.00
2019-05-05T21:52:34.520Z,6.80
2019-05-05T21:55:13.863Z,6.70
2019-05-05T21:58:10.767Z,6.60
2019-05-05T22:00:59.430Z,6.60
2019-05-05T22:03:36.934Z,6.50
2019-05-05T22:06:07.942Z,6.50
2019-05-05T22:08:38.698Z,6.40
2019-05-05T22:11:09.479Z,6.40
2019-05-05T22:13:40.255Z,6.30
2019-05-05T22:16:13.490Z,6.20
2019-05-05T22:18:44.655Z,6.20
2019-05-05T22:21:47.785Z,6.10
2019-05-05T22:24:24.823Z,6.00
2019-05-05T22:26:55.650Z,6.00
2019-05-05T22:29:28.218Z,5.90
2019-05-05T22:31:58.998Z,5.90
2019-05-05T22:34:30.040Z,5.90
2019-05-05T22:37:00.987Z,5.90
2019-05-05T22:39:33.785Z,5.90
2019-05-05T22:42:05.009Z,5.90
2019-05-05T22:44:37.313Z,5.90
2019-05-05T22:47:08.124Z,5.90
2019-05-05T22:49:39.967Z,5.70
2019-05-05T22:52:10.846Z,5.70
2019-05-05T22:54:41.774Z,5.50
2019-05-05T22:57:14.041Z,5.50
2019-05-05T22:59:45.277Z,5.40
2019-05-05T23:02:17.694Z,5.30
2019-05-05T23:05:10.271Z,5.20
2019-05-05T23:07:41.267Z,5.10
2019-05-05T23:10:14.065Z,5.10
2019-05-05T23:12:44.961Z,5.00
2019-05-05T23:15:16.715Z,5.00
2019-05-05T23:18:01.032Z,4.90
2019-05-05T23:21:15.588Z,4.90
2019-05-05T23:24:09.568Z,4.80
2019-05-05T23:26:41.175Z,4.80
2019-05-05T23:29:12.073Z,4.70
2019-05-05T23:31:44.468Z,4.70
2019-05-05T23:34:17.106Z,4.60
2019-05-05T23:36:47.971Z,4.60
2019-05-05T23:39:18.871Z,4.60
2019-05-05T23:41:49.794Z,4.50
2019-05-05T23:44:20.622Z,4.40
2019-05-05T23:46:53.560Z,4.40
2019-05-05T23:49:24.206Z,4.30
2019-05-05T23:51:56.319Z,4.30
2019-05-05T23:54:27.215Z,4.30
2019-05-05T23:56:58.135Z,4.30
2019-05-05T23:59:28.961Z,4.20
